createdAt,value
2023-03-29T00:00:12.733Z,0.12
2023-03-29T00:03:05.769Z,0.01
2023-03-29T00:06:00.180Z,0.03
2023-03-29T00:08:38.539Z,-0.01
2023-03-29T00:11:18.621Z,-0.05
2023-03-29T00:14:02.395Z,-0.19
2023-03-29T00:16:49.244Z,-0.26
2023-03-29T00:19:28.393Z,-0.33
2023-03-29T00:22:08.794Z,-0.42
2023-03-29T00:24:51.130Z,-0.47
2023-03-29T00:27:29.405Z,-0.47
2023-03-29T00:30:15.075Z,-0.57
2023-03-29T00:32:55.697Z,-0.82
2023-03-29T00:35:36.257Z,-0.99
2023-03-29T00:38:19.897Z,-1.12
2023-03-29T00:41:04.389Z,-1.24
2023-03-29T00:44:34.133Z,-1.17
2023-03-29T00:47:15.725Z,-1.22
2023-03-29T00:50:00.245Z,-1.21
2023-03-29T00:52:42.609Z,-1.38
2023-03-29T00:55:27.842Z,-1.28
2023-03-29T00:58:10.267Z,-1.13
2023-03-29T01:01:00.260Z,-1.29
2023-03-29T01:03:46.683Z,-1.10
2023-03-29T01:06:33.389Z,-1.15
2023-03-29T01:09:21.130Z,-1.18
2023-03-29T01:12:04.651Z,-1.60
2023-03-29T01:15:08.663Z,-1.62
2023-03-29T01:17:50.981Z,-1.68
2023-03-29T01:20:48.594Z,-1.87
2023-03-29T01:23:43.866Z,-1.92
2023-03-29T01:26:32.879Z,-2.01
2023-03-29T01:29:18.325Z,-2.04
2023-03-29T01:32:20.599Z,-2.12
2023-03-29T01:35:10.555Z,-2.25
2023-03-29T01:38:13.793Z,-2.41
2023-03-29T01:41:05.678Z,-2.49
2023-03-29T01:44:22.891Z,-2.61
2023-03-29T01:47:20.990Z,-2.64
2023-03-29T01:50:14.792Z,-2.45
2023-03-29T01:53:24.957Z,-2.62
2023-03-29T01:56:17.811Z,-2.77
2023-03-29T01:59:17.295Z,-2.69
2023-03-29T02:02:02.670Z,-2.76
2023-03-29T02:04:41.895Z,-2.84
2023-03-29T02:07:24.526Z,-2.98
2023-03-29T02:10:09.343Z,-3.09
2023-03-29T02:12:50.834Z,-3.19
2023-03-29T02:15:28.421Z,-3.18
2023-03-29T02:18:14.735Z,-3.24
2023-03-29T02:20:49.295Z,-3.33
2023-03-29T02:23:38.986Z,-3.32
2023-03-29T02:26:26.038Z,-3.37
2023-03-29T02:29:12.675Z,-3.39
2023-03-29T02:32:13.388Z,-3.41
2023-03-29T02:35:01.980Z,-3.43
2023-03-29T02:37:54.561Z,-3.43
2023-03-29T02:40:35.750Z,-3.51
2023-03-29T02:43:26.381Z,-3.59
2023-03-29T02:46:08.753Z,-3.63
2023-03-29T02:49:03.394Z,-3.63
2023-03-29T02:51:48.340Z,-3.72
2023-03-29T02:54:31.090Z,-3.82
2023-03-29T02:57:34.670Z,-3.72
2023-03-29T03:00:20.157Z,-3.77
2023-03-29T03:03:06.260Z,-3.69
2023-03-29T03:05:52.660Z,-3.72
2023-03-29T03:08:38.993Z,-3.83
2023-03-29T03:11:25.076Z,-3.86
2023-03-29T03:14:05.882Z,-3.89
2023-03-29T03:16:52.987Z,-3.84
2023-03-29T03:19:33.979Z,-3.90
2023-03-29T03:22:15.394Z,-3.90
2023-03-29T03:24:56.637Z,-3.89
2023-03-29T03:27:43.707Z,-3.95
2023-03-29T03:30:28.221Z,-4.00
2023-03-29T03:33:30.672Z,-4.05
2023-03-29T03:36:34.543Z,-4.06
2023-03-29T03:39:18.675Z,-4.11
2023-03-29T03:42:08.356Z,-4.10
2023-03-29T03:44:51.906Z,-4.13
2023-03-29T03:47:52.211Z,-4.17
2023-03-29T03:51:01.644Z,-4.20
2023-03-29T03:53:46.828Z,-4.34
2023-03-29T03:56:28.367Z,-4.32
2023-03-29T03:59:29.842Z,-4.39
2023-03-29T04:02:13.597Z,-4.32
2023-03-29T04:04:55.755Z,-4.35
2023-03-29T04:07:45.116Z,-4.44
2023-03-29T04:11:05.996Z,-4.46
2023-03-29T04:13:49.978Z,-4.46
2023-03-29T04:16:52.801Z,-4.61
2023-03-29T04:19:52.229Z,-4.68
2023-03-29T04:22:33.442Z,-4.70
2023-03-29T04:25:15.168Z,-4.59
2023-03-29T04:28:10.616Z,-4.66
2023-03-29T04:31:26.922Z,-4.70
2023-03-29T04:34:27.414Z,-4.71
2023-03-29T04:37:14.615Z,-4.75
2023-03-29T04:39:55.596Z,-4.80
2023-03-29T04:42:36.169Z,-4.81
2023-03-29T04:45:32.404Z,-4.81
2023-03-29T04:48:28.652Z,-4.77
2023-03-29T04:51:18.402Z,-4.74
2023-03-29T04:54:02.991Z,-4.70
2023-03-29T04:56:56.475Z,-4.61
2023-03-29T04:59:58.579Z,-4.49
2023-03-29T05:02:58.685Z,-4.25
2023-03-29T05:05:46.065Z,-4.21
2023-03-29T05:08:34.888Z,-4.20
2023-03-29T05:11:45.002Z,-4.16
2023-03-29T05:14:30.974Z,-3.82
2023-03-29T05:17:09.311Z,-3.76
2023-03-29T05:19:49.858Z,-3.66
2023-03-29T05:22:39.941Z,-3.46
2023-03-29T05:25:36.521Z,-3.31
2023-03-29T05:28:18.496Z,-3.22
2023-03-29T05:31:17.269Z,-3.00
2023-03-29T05:34:10.412Z,-2.92
2023-03-29T05:37:00.598Z,-2.77
2023-03-29T05:39:49.397Z,-2.65
2023-03-29T05:42:31.608Z,-2.54
2023-03-29T05:45:20.902Z,-2.30
2023-03-29T05:48:08.518Z,-2.16
2023-03-29T05:51:04.816Z,-1.93
2023-03-29T05:53:47.822Z,-1.70
2023-03-29T05:56:28.701Z,-1.52
2023-03-29T05:59:04.375Z,-1.23
2023-03-29T06:04:44.935Z,-0.45
2023-03-29T06:07:37.160Z,-0.16
2023-03-29T06:10:46.292Z,0.17
2023-03-29T06:13:51.844Z,0.46
2023-03-29T06:16:30.760Z,0.73
2023-03-29T06:19:06.944Z,0.80
2023-03-29T06:21:54.441Z,0.89
2023-03-29T06:24:42.586Z,1.19
2023-03-29T06:27:46.842Z,1.35
2023-03-29T06:30:24.661Z,1.52
2023-03-29T06:33:14.395Z,1.71
2023-03-29T06:36:27.710Z,1.82
2023-03-29T06:39:11.914Z,1.88
2023-03-29T06:42:21.254Z,1.95
2023-03-29T06:45:29.504Z,2.16
2023-03-29T06:48:15.554Z,2.26
2023-03-29T06:50:54.677Z,2.45
2023-03-29T06:53:43.441Z,2.52
2023-03-29T06:56:29.970Z,2.60
2023-03-29T06:59:20.451Z,2.65
2023-03-29T07:02:24.516Z,2.94
2023-03-29T07:05:11.519Z,3.06
2023-03-29T07:08:06.190Z,3.29
2023-03-29T07:11:02.160Z,3.35
2023-03-29T07:13:49.614Z,3.66
2023-03-29T07:16:28.743Z,3.72
2023-03-29T07:19:22.918Z,3.67
2023-03-29T07:22:08.294Z,3.91
2023-03-29T07:25:00.026Z,4.26
2023-03-29T07:27:43.215Z,4.34
2023-03-29T07:30:33.278Z,4.18
2023-03-29T07:33:45.669Z,4.37
2023-03-29T07:36:26.648Z,4.46
2023-03-29T07:39:13.009Z,4.64
2023-03-29T07:42:13.946Z,4.75
2023-03-29T07:44:55.876Z,4.77
2023-03-29T07:47:40.842Z,4.74
2023-03-29T07:50:27.617Z,4.56
2023-03-29T07:53:07.792Z,4.82
2023-03-29T07:55:54.465Z,4.89
2023-03-29T07:59:01.346Z,4.75
2023-03-29T08:01:50.304Z,4.81
2023-03-29T08:04:41.860Z,4.88
2023-03-29T08:07:26.383Z,5.22
2023-03-29T08:10:07.130Z,5.61
2023-03-29T08:13:08.534Z,5.72
2023-03-29T08:16:00.351Z,5.75
2023-03-29T08:18:49.455Z,5.57
2023-03-29T08:21:34.419Z,5.69
2023-03-29T08:24:23.267Z,5.74
2023-03-29T08:27:07.679Z,6.04
2023-03-29T08:30:00.569Z,6.05
2023-03-29T08:32:54.880Z,5.95
2023-03-29T08:35:38.492Z,5.77
2023-03-29T08:38:29.191Z,6.15
2023-03-29T08:41:26.599Z,6.49
2023-03-29T08:44:20.351Z,6.44
2023-03-29T08:47:51.626Z,6.55
2023-03-29T08:50:52.760Z,6.84
2023-03-29T08:53:39.605Z,6.98
2023-03-29T08:56:46.792Z,6.57
2023-03-29T08:59:47.541Z,6.50
2023-03-29T09:02:30.782Z,6.41
2023-03-29T09:05:39.110Z,6.76
2023-03-29T09:08:30.084Z,7.07
2023-03-29T09:11:33.584Z,7.41
2023-03-29T09:14:28.987Z,7.14
2023-03-29T09:17:37.199Z,7.27
2023-03-29T09:20:37.564Z,6.79
2023-03-29T09:23:40.235Z,6.98
2023-03-29T09:27:34.307Z,6.92
2023-03-29T09:30:36.081Z,7.12
2023-03-29T09:33:25.036Z,7.12
2023-03-29T09:36:38.858Z,7.32
2023-03-29T09:39:28.020Z,6.96
2023-03-29T09:42:30.166Z,7.09
2023-03-29T09:45:11.602Z,7.30
2023-03-29T09:48:00.687Z,7.00
2023-03-29T09:50:50.142Z,7.26
2023-03-29T09:53:36.358Z,7.48
2023-03-29T09:56:40.770Z,7.65
2023-03-29T09:59:27.270Z,7.63
2023-03-29T10:02:15.518Z,7.90
2023-03-29T10:05:04.221Z,8.00
2023-03-29T10:07:54.790Z,7.69
2023-03-29T10:10:50.390Z,8.31
2023-03-29T10:13:35.041Z,8.59
2023-03-29T10:16:33.668Z,8.78
2023-03-29T10:19:32.655Z,9.09
2023-03-29T10:22:22.119Z,9.19
2023-03-29T10:25:06.618Z,9.13
2023-03-29T10:27:57.029Z,9.20
2023-03-29T10:30:39.643Z,8.94
2023-03-29T10:33:24.210Z,8.86
2023-03-29T10:36:12.595Z,9.36
2023-03-29T10:38:53.036Z,9.25
2023-03-29T10:41:42.000Z,9.44
2023-03-29T10:44:37.875Z,9.98
2023-03-29T10:47:37.815Z,9.32
2023-03-29T10:50:20.901Z,9.18
2023-03-29T10:53:06.182Z,9.31
2023-03-29T10:56:20.133Z,9.50
2023-03-29T10:59:44.777Z,9.53
2023-03-29T11:02:51.391Z,9.43
2023-03-29T11:05:38.374Z,9.66
2023-03-29T11:08:31.603Z,9.88
2023-03-29T11:11:25.456Z,9.90
2023-03-29T11:14:28.168Z,9.51
2023-03-29T11:17:25.612Z,9.94
2023-03-29T11:20:40.366Z,9.41
2023-03-29T11:23:36.377Z,9.68
2023-03-29T11:26:49.867Z,9.36
2023-03-29T11:29:47.441Z,9.54
2023-03-29T11:32:42.133Z,9.36
2023-03-29T11:35:39.665Z,9.22
2023-03-29T11:38:45.337Z,9.54
2023-03-29T11:41:37.342Z,9.63
2023-03-29T11:44:38.875Z,9.88
2023-03-29T11:47:37.374Z,9.97
2023-03-29T11:50:58.121Z,9.91
2023-03-29T11:54:22.597Z,10.06
2023-03-29T11:57:11.650Z,10.08
2023-03-29T11:59:59.167Z,9.86
2023-03-29T12:02:42.972Z,10.32
2023-03-29T12:05:45.081Z,10.48
2023-03-29T12:08:31.680Z,10.27
2023-03-29T12:11:23.668Z,10.53
2023-03-29T12:14:16.268Z,10.55
2023-03-29T12:17:23.284Z,10.84
2023-03-29T12:20:31.840Z,10.77
2023-03-29T12:23:13.977Z,11.05
2023-03-29T12:26:09.113Z,11.19
2023-03-29T12:28:57.407Z,11.12
2023-03-29T12:31:50.307Z,11.55
2023-03-29T12:35:02.153Z,11.97
2023-03-29T12:38:09.823Z,12.06
2023-03-29T12:41:40.623Z,11.84
2023-03-29T12:44:38.713Z,12.05
2023-03-29T12:47:47.740Z,12.21
2023-03-29T12:50:41.067Z,12.37
2023-03-29T12:53:32.480Z,12.68
2023-03-29T12:56:14.004Z,13.05
2023-03-29T12:58:56.782Z,13.48
2023-03-29T13:01:37.978Z,12.83
2023-03-29T13:05:10.686Z,13.23
2023-03-29T13:08:03.024Z,12.91
2023-03-29T13:10:49.951Z,12.84
2023-03-29T13:13:37.037Z,13.11
2023-03-29T13:16:35.789Z,12.87
2023-03-29T13:19:20.550Z,12.84
2023-03-29T13:22:38.871Z,13.01
2023-03-29T13:25:32.769Z,13.32
2023-03-29T13:28:28.584Z,13.61
2023-03-29T13:31:35.599Z,13.89
2023-03-29T13:34:26.050Z,13.86
2023-03-29T13:37:32.245Z,13.41
2023-03-29T13:40:28.387Z,13.20
2023-03-29T13:43:32.843Z,12.79
2023-03-29T13:46:24.174Z,12.99
2023-03-29T13:49:27.248Z,12.50
2023-03-29T13:52:18.161Z,12.17
2023-03-29T13:55:22.092Z,12.00
2023-03-29T13:58:07.849Z,11.91
2023-03-29T14:01:24.002Z,11.72
2023-03-29T14:04:10.592Z,11.65
2023-03-29T14:06:58.253Z,11.60
2023-03-29T14:09:43.508Z,11.08
2023-03-29T14:12:33.470Z,11.07
2023-03-29T14:15:24.309Z,11.18
2023-03-29T14:18:08.114Z,11.02
2023-03-29T14:20:49.832Z,11.14
2023-03-29T14:23:32.564Z,11.22
2023-03-29T14:26:34.597Z,11.48
2023-03-29T14:29:25.051Z,11.85
2023-03-29T14:32:18.583Z,12.07
2023-03-29T14:34:58.615Z,11.74
2023-03-29T14:37:44.872Z,11.73
2023-03-29T14:40:28.121Z,11.65
2023-03-29T14:43:08.850Z,11.52
2023-03-29T14:46:05.705Z,11.19
2023-03-29T14:48:42.740Z,11.12
2023-03-29T14:51:29.617Z,11.22
2023-03-29T14:54:22.332Z,11.27
2023-03-29T14:57:21.207Z,11.13
2023-03-29T15:00:53.844Z,10.89
2023-03-29T15:03:54.554Z,10.71
2023-03-29T15:06:50.846Z,10.56
2023-03-29T15:09:38.797Z,10.39
2023-03-29T15:12:24.199Z,10.47
2023-03-29T15:15:07.825Z,10.55
2023-03-29T15:17:53.006Z,10.39
2023-03-29T15:20:35.708Z,10.56
2023-03-29T15:23:37.628Z,10.49
2023-03-29T15:26:27.596Z,10.48
2023-03-29T15:29:26.006Z,10.45
2023-03-29T15:32:18.080Z,10.37
2023-03-29T15:35:07.915Z,10.30
2023-03-29T15:37:57.100Z,10.28
2023-03-29T15:40:48.445Z,10.27
2023-03-29T15:43:37.887Z,10.39
2023-03-29T15:46:21.776Z,10.38
2023-03-29T15:49:05.660Z,10.31
2023-03-29T15:51:49.447Z,10.28
2023-03-29T15:54:32.333Z,10.30
2023-03-29T15:57:24.277Z,10.45
2023-03-29T16:00:10.673Z,10.68
2023-03-29T16:02:53.815Z,10.72
2023-03-29T16:05:38.322Z,10.79
2023-03-29T16:08:15.704Z,10.39
2023-03-29T16:10:51.160Z,10.39
2023-03-29T16:13:37.579Z,10.12
2023-03-29T16:16:17.054Z,10.04
2023-03-29T16:18:59.604Z,9.92
2023-03-29T16:21:35.515Z,9.92
2023-03-29T16:24:25.393Z,9.77
2023-03-29T16:27:20.917Z,9.63
2023-03-29T16:29:59.046Z,9.74
2023-03-29T16:32:58.693Z,9.60
2023-03-29T16:35:40.631Z,9.40
2023-03-29T16:38:24.515Z,9.40
2023-03-29T16:41:06.986Z,9.35
2023-03-29T16:43:47.912Z,9.21
2023-03-29T16:46:31.561Z,9.05
2023-03-29T16:49:27.475Z,8.91
2023-03-29T16:52:10.767Z,8.81
2023-03-29T16:54:52.635Z,8.71
2023-03-29T16:57:53.024Z,8.64
2023-03-29T17:00:33.432Z,8.64
2023-03-29T17:03:11.302Z,8.42
2023-03-29T17:05:59.086Z,8.29
2023-03-29T17:08:40.085Z,8.13
2023-03-29T17:11:24.733Z,8.16
2023-03-29T17:14:03.077Z,8.10
2023-03-29T17:16:46.504Z,7.97
2023-03-29T17:19:24.245Z,7.74
2023-03-29T17:22:21.906Z,7.60
2023-03-29T17:25:10.779Z,7.63
2023-03-29T17:27:55.581Z,7.56
2023-03-29T17:30:34.503Z,7.41
2023-03-29T17:33:20.388Z,7.32
2023-03-29T17:36:04.242Z,7.26
2023-03-29T17:38:45.926Z,7.24
2023-03-29T17:41:31.341Z,7.23
2023-03-29T17:44:07.116Z,7.15
2023-03-29T17:46:56.437Z,7.04
2023-03-29T17:49:37.244Z,7.06
2023-03-29T17:52:19.472Z,7.00
2023-03-29T17:55:03.225Z,6.95
2023-03-29T17:57:48.151Z,6.94
2023-03-29T18:00:31.329Z,6.91
2023-03-29T18:03:12.289Z,6.87
2023-03-29T18:05:57.816Z,6.81
2023-03-29T18:08:50.776Z,6.74
2023-03-29T18:11:33.287Z,6.70
2023-03-29T18:14:13.596Z,6.60
2023-03-29T18:16:57.816Z,6.57
2023-03-29T18:19:56.417Z,6.57
2023-03-29T18:22:38.648Z,6.44
2023-03-29T18:25:15.834Z,6.41
2023-03-29T18:27:59.639Z,6.43
2023-03-29T18:30:46.333Z,6.39
2023-03-29T18:33:33.204Z,6.40
2023-03-29T18:36:32.485Z,6.36
2023-03-29T18:39:09.555Z,6.32
2023-03-29T18:41:57.513Z,6.26
2023-03-29T18:44:43.933Z,6.28
2023-03-29T18:47:39.304Z,6.25
2023-03-29T18:50:20.130Z,6.16
2023-03-29T18:53:04.042Z,5.97
2023-03-29T18:55:44.956Z,5.91
2023-03-29T18:58:28.854Z,5.92
2023-03-29T19:01:14.415Z,5.91
2023-03-29T19:03:58.016Z,5.86
2023-03-29T19:06:43.847Z,5.87
2023-03-29T19:09:24.248Z,5.88
2023-03-29T19:11:59.097Z,5.82
2023-03-29T19:14:39.661Z,5.81
2023-03-29T19:17:20.168Z,5.73
2023-03-29T19:19:58.577Z,5.73
2023-03-29T19:22:45.908Z,5.74
2023-03-29T19:25:26.290Z,5.70
2023-03-29T19:28:10.032Z,5.70
2023-03-29T19:30:49.222Z,5.66
2023-03-29T19:33:27.020Z,5.65
2023-03-29T19:36:07.796Z,5.61
2023-03-29T19:38:50.246Z,5.62
2023-03-29T19:41:33.082Z,5.59
2023-03-29T19:44:18.854Z,5.74
2023-03-29T19:47:08.689Z,5.64
2023-03-29T19:49:52.184Z,5.66
2023-03-29T19:52:37.893Z,5.63
2023-03-29T19:55:23.954Z,5.53
2023-03-29T19:57:59.547Z,5.57
2023-03-29T20:00:50.803Z,5.55
2023-03-29T20:03:35.669Z,5.55
2023-03-29T20:06:12.928Z,5.48
2023-03-29T20:08:56.127Z,5.48
2023-03-29T20:11:36.902Z,5.41
2023-03-29T20:14:28.320Z,5.35
2023-03-29T20:17:11.549Z,5.28
2023-03-29T20:19:49.530Z,5.36
2023-03-29T20:22:32.873Z,5.46
2023-03-29T20:25:16.114Z,5.44
2023-03-29T20:27:53.654Z,5.51
2023-03-29T20:30:37.404Z,5.51
2023-03-29T20:33:23.871Z,5.46
2023-03-29T20:36:07.842Z,5.60
2023-03-29T20:38:47.909Z,5.66
2023-03-29T20:41:28.696Z,5.55
2023-03-29T20:44:11.919Z,5.54
2023-03-29T20:47:05.036Z,5.50
2023-03-29T20:49:42.735Z,5.52
2023-03-29T20:52:35.059Z,5.51
2023-03-29T20:55:22.380Z,5.55
2023-03-29T20:58:09.087Z,5.51
2023-03-29T21:00:48.514Z,5.54
2023-03-29T21:03:27.594Z,5.50
2023-03-29T21:06:14.128Z,5.45
2023-03-29T21:09:06.298Z,5.53
2023-03-29T21:11:44.163Z,5.57
2023-03-29T21:14:30.429Z,5.57
2023-03-29T21:17:07.528Z,5.53
2023-03-29T21:20:04.060Z,5.65
2023-03-29T21:22:42.802Z,5.57
2023-03-29T21:25:22.632Z,5.58
2023-03-29T21:28:00.440Z,5.55
2023-03-29T21:30:38.542Z,5.57
2023-03-29T21:33:16.907Z,5.55
2023-03-29T21:35:57.982Z,5.55
2023-03-29T21:38:38.717Z,5.56
2023-03-29T21:41:25.696Z,5.61
2023-03-29T21:44:06.415Z,5.61
2023-03-29T21:46:51.960Z,5.71
2023-03-29T21:49:33.017Z,5.64
2023-03-29T21:52:10.782Z,5.62
2023-03-29T21:54:52.213Z,5.56
2023-03-29T21:57:35.403Z,5.45
2023-03-29T22:00:18.844Z,5.58
2023-03-29T22:02:59.064Z,5.53
2023-03-29T22:05:39.858Z,5.47
2023-03-29T22:08:25.566Z,5.30
2023-03-29T22:11:13.066Z,5.20
2023-03-29T22:14:10.998Z,5.13
2023-03-29T22:16:51.689Z,5.09
2023-03-29T22:19:30.401Z,4.99
2023-03-29T22:22:17.656Z,4.96
2023-03-29T22:25:04.405Z,4.92
2023-03-29T22:27:44.896Z,4.91
2023-03-29T22:30:29.202Z,4.85
2023-03-29T22:33:07.346Z,4.90
2023-03-29T22:35:51.671Z,4.92
2023-03-29T22:38:28.938Z,4.92
2023-03-29T22:41:19.193Z,4.87
2023-03-29T22:43:57.492Z,4.84
2023-03-29T22:46:38.677Z,4.88
2023-03-29T22:49:23.082Z,4.95
2023-03-29T22:52:09.421Z,4.92
2023-03-29T22:54:46.831Z,4.85
2023-03-29T22:57:36.715Z,4.98
2023-03-29T23:00:26.373Z,4.96
2023-03-29T23:03:07.099Z,5.01
2023-03-29T23:05:55.258Z,5.02
2023-03-29T23:08:34.433Z,4.95
2023-03-29T23:11:15.134Z,4.95
2023-03-29T23:13:57.504Z,5.00
2023-03-29T23:16:40.737Z,4.91
2023-03-29T23:19:22.185Z,4.90
2023-03-29T23:21:57.782Z,4.92
2023-03-29T23:24:46.289Z,5.03
2023-03-29T23:27:27.628Z,5.08
2023-03-29T23:30:10.684Z,5.09
2023-03-29T23:32:54.029Z,5.09
2023-03-29T23:35:39.368Z,5.13
2023-03-29T23:38:17.669Z,5.03
2023-03-29T23:41:11.053Z,5.11
2023-03-29T23:43:52.378Z,5.10
2023-03-29T23:46:33.139Z,5.10
2023-03-29T23:49:13.903Z,5.15
2023-03-29T23:52:00.262Z,5.08
2023-03-29T23:54:46.254Z,5.07
2023-03-29T23:57:29.634Z,5.11
